createdAt,value
2019-02-24T00:01:22.649Z,4.00
2019-02-24T00:03:51.892Z,4.00
2019-02-24T00:06:21.127Z,3.70
2019-02-24T00:08:50.323Z,4.23
2019-02-24T00:11:19.685Z,5.10
2019-02-24T00:13:48.885Z,3.70
2019-02-24T00:16:26.111Z,3.93
2019-02-24T00:18:55.640Z,2.87
2019-02-24T00:23:59.583Z,2.83
2019-02-24T00:26:28.795Z,3.93
2019-02-24T00:28:57.974Z,2.20
2019-02-24T00:31:27.154Z,3.67
2019-02-24T00:33:56.404Z,2.93
2019-02-24T00:36:25.593Z,4.27
2019-02-24T00:38:54.838Z,3.20
2019-02-24T00:41:24.018Z,2.90
2019-02-24T00:43:53.266Z,3.60
2019-02-24T00:46:22.447Z,4.63
2019-02-24T00:48:51.691Z,3.60
2019-02-24T00:51:20.892Z,2.87
2019-02-24T00:53:50.447Z,2.63
2019-02-24T00:56:19.656Z,5.20
2019-02-24T00:58:48.893Z,5.10
2019-02-24T01:04:26.758Z,4.47
2019-02-24T01:06:55.959Z,3.60
2019-02-24T01:09:25.258Z,3.57
2019-02-24T01:11:54.460Z,2.97
2019-02-24T01:14:23.708Z,4.83
2019-02-24T01:16:52.895Z,3.67
2019-02-24T01:19:22.343Z,3.53
2019-02-24T01:21:51.543Z,4.67
2019-02-24T01:24:20.793Z,3.10
2019-02-24T01:26:49.986Z,3.77
2019-02-24T01:29:19.246Z,3.43
2019-02-24T01:31:48.811Z,3.37
2019-02-24T01:34:18.049Z,4.33
2019-02-24T01:36:47.228Z,2.50
2019-02-24T01:39:16.472Z,3.60
2019-02-24T01:41:45.674Z,2.97
2019-02-24T01:44:15.224Z,8.00
2019-02-24T01:46:44.408Z,2.63
2019-02-24T01:49:13.639Z,2.20
2019-02-24T01:51:42.838Z,3.57
2019-02-24T01:54:12.097Z,3.07
2019-02-24T01:56:41.287Z,3.57
2019-02-24T01:59:10.799Z,3.57
2019-02-24T02:01:40.041Z,6.53
2019-02-24T02:04:09.279Z,3.73
2019-02-24T02:06:38.851Z,5.43
2019-02-24T02:09:08.226Z,4.07
2019-02-24T02:11:37.465Z,4.43
2019-02-24T02:14:06.962Z,3.20
2019-02-24T02:16:36.209Z,3.63
2019-02-24T02:19:05.398Z,3.13
2019-02-24T02:21:34.635Z,3.33
2019-02-24T02:24:03.833Z,3.47
2019-02-24T02:26:33.074Z,2.97
2019-02-24T02:29:02.625Z,5.50
2019-02-24T02:31:31.867Z,4.20
2019-02-24T02:34:01.027Z,5.93
2019-02-24T02:36:30.295Z,4.60
2019-02-24T02:38:59.864Z,4.97
2019-02-24T02:41:29.465Z,3.27
2019-02-24T02:43:58.653Z,5.47
2019-02-24T02:46:27.886Z,4.10
2019-02-24T02:48:57.111Z,2.87
2019-02-24T02:51:26.359Z,2.87
2019-02-24T02:53:55.549Z,3.43
2019-02-24T02:56:24.737Z,4.10
2019-02-24T02:58:54.767Z,3.63
2019-02-24T03:01:24.879Z,2.87
2019-02-24T03:03:54.497Z,5.30
2019-02-24T03:09:17.869Z,3.17
2019-02-24T03:11:47.056Z,4.37
2019-02-24T03:14:16.295Z,3.97
2019-02-24T03:16:45.469Z,3.37
2019-02-24T03:19:14.699Z,3.87
2019-02-24T03:21:43.877Z,5.33
2019-02-24T03:26:47.518Z,2.53
2019-02-24T03:29:16.754Z,4.43
2019-02-24T03:31:45.928Z,3.63
2019-02-24T03:34:15.185Z,4.10
2019-02-24T03:36:51.487Z,4.40
2019-02-24T03:39:21.350Z,3.77
2019-02-24T03:41:50.530Z,5.03
2019-02-24T03:44:19.711Z,3.57
2019-02-24T03:46:49.236Z,3.70
2019-02-24T03:49:18.429Z,4.10
2019-02-24T03:51:47.668Z,5.20
2019-02-24T03:54:16.852Z,4.93
2019-02-24T03:56:46.108Z,4.63
2019-02-24T03:59:15.494Z,4.33
2019-02-24T04:01:46.271Z,3.10
2019-02-24T04:04:15.533Z,3.20
2019-02-24T04:06:44.776Z,4.67
2019-02-24T04:09:13.969Z,2.77
2019-02-24T04:11:43.326Z,4.17
2019-02-24T04:14:12.884Z,4.63
2019-02-24T04:16:42.115Z,4.10
2019-02-24T04:19:11.296Z,4.27
2019-02-24T04:21:40.537Z,3.03
2019-02-24T04:24:09.728Z,4.37
2019-02-24T04:26:38.972Z,4.53
2019-02-24T04:29:08.164Z,4.43
2019-02-24T04:31:37.405Z,4.80
2019-02-24T04:34:06.611Z,3.63
2019-02-24T04:36:35.846Z,4.03
2019-02-24T04:39:44.427Z,3.93
2019-02-24T04:44:48.727Z,4.63
2019-02-24T04:47:18.636Z,4.73
2019-02-24T04:49:47.826Z,5.10
2019-02-24T04:52:17.061Z,4.03
2019-02-24T04:54:47.065Z,3.77
2019-02-24T04:57:16.319Z,4.03
2019-02-24T04:59:45.517Z,3.63
2019-02-24T05:02:14.793Z,5.03
2019-02-24T05:04:44.027Z,4.17
2019-02-24T05:07:13.200Z,4.67
2019-02-24T05:09:42.438Z,3.43
2019-02-24T05:12:11.633Z,3.40
2019-02-24T05:14:40.866Z,4.43
2019-02-24T05:17:10.851Z,4.13
2019-02-24T05:19:40.123Z,5.57
2019-02-24T05:22:09.319Z,4.43
2019-02-24T05:24:38.560Z,3.67
2019-02-24T05:27:07.746Z,4.43
2019-02-24T05:29:45.217Z,4.50
2019-02-24T05:32:07.943Z,3.80
2019-02-24T05:34:37.110Z,2.90
2019-02-24T05:37:06.352Z,3.00
2019-02-24T05:39:35.542Z,3.50
2019-02-24T05:42:05.113Z,3.23
2019-02-24T05:44:34.289Z,3.83
2019-02-24T05:47:03.537Z,3.87
2019-02-24T05:49:32.719Z,3.13
2019-02-24T05:52:01.951Z,5.13
2019-02-24T05:54:31.578Z,3.93
2019-02-24T05:57:00.813Z,6.00
2019-02-24T05:59:30.310Z,3.87
2019-02-24T06:01:59.552Z,4.60
2019-02-24T06:04:28.804Z,4.77
2019-02-24T06:06:58.053Z,4.27
2019-02-24T06:12:15.826Z,6.73
2019-02-24T06:14:45.012Z,4.40
2019-02-24T06:17:14.247Z,4.83
2019-02-24T06:19:43.431Z,5.23
2019-02-24T06:22:12.693Z,4.90
2019-02-24T06:24:41.895Z,4.83
2019-02-24T06:27:11.082Z,3.97
2019-02-24T06:29:40.343Z,4.67
2019-02-24T06:32:09.510Z,4.87
2019-02-24T06:34:38.742Z,2.77
2019-02-24T06:37:07.923Z,3.63
2019-02-24T06:39:37.158Z,3.10
2019-02-24T06:42:06.343Z,3.60
2019-02-24T06:44:35.601Z,6.73
2019-02-24T06:47:04.777Z,4.03
2019-02-24T06:49:34.022Z,5.17
2019-02-24T06:52:03.188Z,2.57
2019-02-24T06:54:32.419Z,3.90
2019-02-24T06:57:01.602Z,3.67
2019-02-24T06:59:30.841Z,3.77
2019-02-24T07:02:00.023Z,4.63
2019-02-24T07:04:29.308Z,4.03
2019-02-24T07:06:58.489Z,5.30
2019-02-24T07:09:27.749Z,5.13
2019-02-24T07:11:57.202Z,3.67
2019-02-24T07:14:26.393Z,3.53
2019-02-24T07:16:55.626Z,4.67
2019-02-24T07:19:25.181Z,5.10
2019-02-24T07:21:54.412Z,4.77
2019-02-24T07:24:23.656Z,3.90
2019-02-24T07:26:53.210Z,3.57
2019-02-24T07:29:41.317Z,2.97
2019-02-24T07:32:10.565Z,3.23
2019-02-24T07:34:39.752Z,3.70
2019-02-24T07:37:13.013Z,6.07
2019-02-24T07:39:40.935Z,4.50
2019-02-24T07:42:10.168Z,4.50
2019-02-24T07:44:39.344Z,4.80
2019-02-24T07:47:08.587Z,4.13
2019-02-24T07:49:37.784Z,5.93
2019-02-24T07:52:07.058Z,4.43
2019-02-24T07:54:36.256Z,4.17
2019-02-24T07:57:05.443Z,4.20
2019-02-24T07:59:34.686Z,2.93
2019-02-24T08:02:04.533Z,5.77
2019-02-24T08:04:34.234Z,4.07
2019-02-24T08:07:03.409Z,5.17
2019-02-24T08:09:32.658Z,3.73
2019-02-24T08:12:02.248Z,3.97
2019-02-24T08:14:31.488Z,4.83
2019-02-24T08:17:01.073Z,8.10
2019-02-24T08:19:30.307Z,4.17
2019-02-24T08:22:00.163Z,4.33
2019-02-24T08:24:29.412Z,5.33
2019-02-24T08:26:58.655Z,4.43
2019-02-24T08:30:07.519Z,4.57
2019-02-24T08:32:36.743Z,6.33
2019-02-24T08:35:06.229Z,3.47
2019-02-24T08:37:35.415Z,5.50
2019-02-24T08:40:04.812Z,6.17
2019-02-24T08:42:34.341Z,7.00
2019-02-24T08:45:03.586Z,4.47
2019-02-24T08:47:32.780Z,4.77
2019-02-24T08:50:02.356Z,3.43
2019-02-24T08:52:31.538Z,5.83
2019-02-24T08:55:00.771Z,5.43
2019-02-24T08:57:29.953Z,5.20
2019-02-24T08:59:59.213Z,5.00
2019-02-24T09:02:28.395Z,4.70
2019-02-24T09:04:57.694Z,5.37
2019-02-24T09:07:26.882Z,5.63
2019-02-24T09:09:56.130Z,5.47
2019-02-24T09:12:25.318Z,4.90
2019-02-24T09:14:54.557Z,5.67
2019-02-24T09:17:23.781Z,5.20
2019-02-24T09:19:53.057Z,5.67
2019-02-24T09:22:22.233Z,5.90
2019-02-24T09:24:51.464Z,5.80
2019-02-24T09:27:20.645Z,6.63
2019-02-24T09:29:49.885Z,5.20
2019-02-24T09:32:19.133Z,6.17
2019-02-24T09:34:48.717Z,5.27
2019-02-24T09:37:18.334Z,5.07
2019-02-24T09:39:48.032Z,4.73
2019-02-24T09:42:17.231Z,5.30
2019-02-24T09:44:46.476Z,6.37
2019-02-24T09:47:15.654Z,4.43
2019-02-24T09:49:45.232Z,8.27
2019-02-24T09:52:14.469Z,4.83
2019-02-24T09:54:43.948Z,6.53
2019-02-24T09:57:13.540Z,7.10
2019-02-24T09:59:43.311Z,6.60
2019-02-24T10:02:12.570Z,5.87
2019-02-24T10:04:41.813Z,7.03
2019-02-24T10:07:11.094Z,6.03
2019-02-24T10:09:40.658Z,4.57
2019-02-24T10:12:10.041Z,4.33
2019-02-24T10:14:39.265Z,5.83
2019-02-24T10:17:08.503Z,5.67
2019-02-24T10:19:37.675Z,5.47
2019-02-24T10:22:06.927Z,6.63
2019-02-24T10:24:36.404Z,6.10
2019-02-24T10:27:05.648Z,6.30
2019-02-24T10:29:34.844Z,6.27
2019-02-24T10:32:04.081Z,5.33
2019-02-24T10:34:33.557Z,4.13
2019-02-24T10:37:03.158Z,4.50
2019-02-24T10:39:32.343Z,5.37
2019-02-24T10:42:01.623Z,5.47
2019-02-24T10:44:30.817Z,4.87
2019-02-24T10:47:02.155Z,5.67
2019-02-24T10:49:31.002Z,5.23
2019-02-24T10:52:00.280Z,9.03
2019-02-24T10:54:29.514Z,4.77
2019-02-24T10:56:58.759Z,5.17
2019-02-24T10:59:27.954Z,4.87
2019-02-24T11:01:57.223Z,6.90
2019-02-24T11:04:26.566Z,5.40
2019-02-24T11:06:55.827Z,4.53
2019-02-24T11:09:25.077Z,5.40
2019-02-24T11:11:54.597Z,4.70
2019-02-24T11:14:23.840Z,5.40
2019-02-24T11:16:53.026Z,5.73
2019-02-24T11:19:22.319Z,7.30
2019-02-24T11:21:51.513Z,5.37
2019-02-24T11:24:20.758Z,6.27
2019-02-24T11:26:49.953Z,5.00
2019-02-24T11:29:19.214Z,5.70
2019-02-24T11:31:48.400Z,5.63
2019-02-24T11:34:17.978Z,5.63
2019-02-24T11:36:47.183Z,6.17
2019-02-24T11:39:16.376Z,8.57
2019-02-24T11:41:45.630Z,4.53
2019-02-24T11:44:14.887Z,5.03
2019-02-24T11:46:44.116Z,5.63
2019-02-24T11:49:13.305Z,4.00
2019-02-24T11:51:42.880Z,5.00
2019-02-24T11:54:12.376Z,4.07
2019-02-24T11:56:41.609Z,5.20
2019-02-24T11:59:10.795Z,6.60
2019-02-24T12:01:47.352Z,5.87
2019-02-24T12:04:11.023Z,5.57
2019-02-24T12:06:40.249Z,4.70
2019-02-24T12:09:09.711Z,6.27
2019-02-24T12:11:39.282Z,6.07
2019-02-24T12:14:08.517Z,4.77
2019-02-24T12:16:38.023Z,4.83
2019-02-24T12:19:07.311Z,6.83
2019-02-24T12:21:36.509Z,5.20
2019-02-24T12:24:05.768Z,5.97
2019-02-24T12:26:35.228Z,8.97
2019-02-24T12:29:04.496Z,5.67
2019-02-24T12:31:34.029Z,4.87
2019-02-24T12:34:03.314Z,5.30
2019-02-24T12:36:32.500Z,4.40
2019-02-24T12:39:01.756Z,4.93
2019-02-24T12:41:31.229Z,4.93
2019-02-24T12:44:00.472Z,6.20
2019-02-24T12:46:29.675Z,5.73
2019-02-24T12:48:58.930Z,5.97
2019-02-24T12:51:28.125Z,6.53
2019-02-24T12:53:57.408Z,5.93
2019-02-24T12:56:26.604Z,7.17
2019-02-24T12:58:55.860Z,4.73
2019-02-24T13:01:25.051Z,4.07
2019-02-24T13:03:54.346Z,4.23
2019-02-24T13:06:23.532Z,4.30
2019-02-24T13:08:52.781Z,4.60
2019-02-24T13:11:22.321Z,5.47
2019-02-24T13:13:51.554Z,5.57
2019-02-24T13:16:20.752Z,4.10
2019-02-24T13:18:49.987Z,6.97
2019-02-24T13:21:19.184Z,5.63
2019-02-24T13:23:48.435Z,6.00
2019-02-24T13:26:17.702Z,4.70
2019-02-24T13:28:50.509Z,4.63
2019-02-24T13:31:18.216Z,4.60
2019-02-24T13:33:48.085Z,4.27
2019-02-24T13:36:17.336Z,3.87
2019-02-24T13:38:46.732Z,4.37
2019-02-24T13:41:15.908Z,7.07
2019-02-24T13:43:45.208Z,5.37
2019-02-24T13:46:14.429Z,4.27
2019-02-24T13:48:43.692Z,5.37
2019-02-24T13:51:13.140Z,4.47
2019-02-24T13:53:42.395Z,3.87
2019-02-24T13:56:12.071Z,4.60
2019-02-24T13:58:41.317Z,5.43
2019-02-24T14:01:10.646Z,4.07
2019-02-24T14:03:39.910Z,5.17
2019-02-24T14:06:09.309Z,4.83
2019-02-24T14:08:38.525Z,3.63
2019-02-24T14:14:02.679Z,5.07
2019-02-24T14:16:32.288Z,9.07
2019-02-24T14:19:01.890Z,4.43
2019-02-24T14:21:31.208Z,5.97
2019-02-24T14:24:00.490Z,4.67
2019-02-24T14:26:29.828Z,5.03
2019-02-24T14:28:59.083Z,7.30
2019-02-24T14:31:28.720Z,4.87
2019-02-24T14:33:58.075Z,5.37
2019-02-24T14:42:04.185Z,5.43
2019-02-24T14:47:23.492Z,5.30
2019-02-24T14:49:52.864Z,7.57
2019-02-24T14:52:22.458Z,6.57
2019-02-24T14:54:51.669Z,3.87
2019-02-24T14:57:20.991Z,6.17
2019-02-24T14:59:50.225Z,4.70
2019-02-24T15:02:20.659Z,4.90
2019-02-24T15:05:30.662Z,4.93
2019-02-24T15:08:00.373Z,8.53
2019-02-24T15:10:29.982Z,4.97
2019-02-24T15:13:00.928Z,4.47
2019-02-24T15:15:33.108Z,4.73
2019-02-24T15:18:01.195Z,5.07
2019-02-24T15:20:30.506Z,4.20
2019-02-24T15:22:59.750Z,5.73
2019-02-24T15:25:28.932Z,5.83
2019-02-24T15:27:58.183Z,5.55
2019-02-24T15:30:29.717Z,5.87
2019-02-24T15:32:58.992Z,5.22
2019-02-24T15:35:28.194Z,6.72
2019-02-24T15:37:57.412Z,6.58
2019-02-24T15:40:26.669Z,5.37
2019-02-24T15:42:55.918Z,5.55
2019-02-24T15:45:25.147Z,4.53
2019-02-24T15:47:54.328Z,7.03
2019-02-24T15:50:23.587Z,6.77
2019-02-24T15:53:11.857Z,5.10
2019-02-24T15:55:41.109Z,5.53
2019-02-24T15:58:10.314Z,7.23
2019-02-24T16:00:39.670Z,5.63
2019-02-24T16:03:08.873Z,6.90
2019-02-24T16:05:38.182Z,5.47
2019-02-24T16:08:26.463Z,5.13
2019-02-24T16:10:55.733Z,5.70
2019-02-24T16:13:24.934Z,5.67
2019-02-24T16:15:54.177Z,5.60
2019-02-24T16:18:23.373Z,7.57
2019-02-24T16:20:52.637Z,5.13
2019-02-24T16:23:22.210Z,5.73
2019-02-24T16:25:51.528Z,5.47
2019-02-24T16:28:21.185Z,5.90
2019-02-24T16:30:50.440Z,4.43
2019-02-24T16:33:19.612Z,6.53
2019-02-24T16:35:48.889Z,5.70
2019-02-24T16:38:18.350Z,4.63
2019-02-24T16:40:47.541Z,5.60
2019-02-24T16:43:16.815Z,5.70
2019-02-24T16:45:46.007Z,5.63
2019-02-24T16:48:15.610Z,5.10
2019-02-24T16:50:44.799Z,5.07
2019-02-24T16:53:14.045Z,4.90
2019-02-24T16:55:43.221Z,4.83
2019-02-24T16:58:12.804Z,6.67
2019-02-24T17:00:42.003Z,5.03
2019-02-24T17:03:19.689Z,5.33
2019-02-24T17:05:42.992Z,5.33
2019-02-24T17:08:12.278Z,4.37
2019-02-24T17:10:42.359Z,5.97
2019-02-24T17:13:11.591Z,5.20
2019-02-24T17:15:40.835Z,6.07
2019-02-24T17:18:10.030Z,6.93
2019-02-24T17:20:39.658Z,7.13
2019-02-24T17:23:09.173Z,7.47
2019-02-24T17:25:39.020Z,5.77
2019-02-24T17:28:08.206Z,5.10
2019-02-24T17:30:37.477Z,6.40
2019-02-24T17:33:06.976Z,4.70
2019-02-24T17:35:36.231Z,6.27
2019-02-24T17:38:05.422Z,7.80
2019-02-24T17:40:34.691Z,6.10
2019-02-24T17:43:03.887Z,7.90
2019-02-24T17:45:33.582Z,5.27
2019-02-24T17:48:02.903Z,5.77
2019-02-24T17:50:32.564Z,4.77
2019-02-24T17:53:01.805Z,4.87
2019-02-24T17:55:31.350Z,6.20
2019-02-24T17:58:00.753Z,5.83
2019-02-24T18:05:57.826Z,5.43
2019-02-24T18:08:28.400Z,6.57
2019-02-24T18:10:58.051Z,6.67
2019-02-24T18:13:27.302Z,6.93
2019-02-24T18:15:56.498Z,10.93
2019-02-24T18:18:25.791Z,20.50
2019-02-24T18:20:55.316Z,18.00
2019-02-24T18:23:24.522Z,5.23
2019-02-24T18:26:13.177Z,5.17
2019-02-24T18:28:42.776Z,6.20
2019-02-24T18:31:12.061Z,6.13
2019-02-24T18:33:48.084Z,9.07
2019-02-24T18:36:12.632Z,5.00
2019-02-24T18:38:41.825Z,8.97
2019-02-24T18:41:11.121Z,6.10
2019-02-24T18:43:40.319Z,7.90
2019-02-24T18:46:10.131Z,11.73
2019-02-24T18:48:39.314Z,7.03
2019-02-24T18:51:08.575Z,8.63
2019-02-24T18:53:56.751Z,6.87
2019-02-24T18:56:26.059Z,6.07
2019-02-24T18:58:55.287Z,5.93
2019-02-24T19:01:24.874Z,6.40
2019-02-24T19:03:57.546Z,10.83
2019-02-24T19:06:25.196Z,10.97
2019-02-24T19:08:54.389Z,10.20
2019-02-24T19:11:23.630Z,12.17
2019-02-24T19:13:52.979Z,15.37
2019-02-24T19:16:22.224Z,14.23
2019-02-24T19:18:51.425Z,13.43
2019-02-24T19:21:20.678Z,10.87
2019-02-24T19:23:49.877Z,15.47
2019-02-24T19:26:19.128Z,12.70
2019-02-24T19:28:48.343Z,8.70
2019-02-24T19:31:17.624Z,9.97
2019-02-24T19:33:46.802Z,9.03
2019-02-24T19:36:16.068Z,11.53
2019-02-24T19:38:45.270Z,13.10
2019-02-24T19:41:14.507Z,13.77
2019-02-24T19:43:43.703Z,9.97
2019-02-24T19:46:12.961Z,8.77
2019-02-24T19:48:42.353Z,7.13
2019-02-24T19:51:13.530Z,7.40
2019-02-24T19:53:42.943Z,8.43
2019-02-24T19:56:12.177Z,6.63
2019-02-24T19:58:41.385Z,8.90
2019-02-24T20:01:10.667Z,7.07
2019-02-24T20:03:39.864Z,6.03
2019-02-24T20:06:09.441Z,6.40
2019-02-24T20:08:38.690Z,6.80
2019-02-24T20:11:07.901Z,9.70
2019-02-24T20:13:37.892Z,6.40
2019-02-24T20:16:07.081Z,9.13
2019-02-24T20:18:36.355Z,9.53
2019-02-24T20:21:07.926Z,7.17
2019-02-24T20:23:37.309Z,6.00
2019-02-24T20:26:06.490Z,8.57
2019-02-24T20:28:35.724Z,7.97
2019-02-24T20:31:04.907Z,8.63
2019-02-24T20:36:29.908Z,9.10
2019-02-24T20:39:00.104Z,7.63
2019-02-24T20:41:29.293Z,7.47
2019-02-24T20:43:58.538Z,8.40
2019-02-24T20:46:27.725Z,9.27
2019-02-24T20:48:57.667Z,12.27
2019-02-24T20:51:26.866Z,7.73
2019-02-24T20:53:56.467Z,9.17
2019-02-24T20:56:25.651Z,9.93
2019-02-24T20:58:54.892Z,8.67
2019-02-24T21:01:24.070Z,6.93
2019-02-24T21:03:53.355Z,10.03
2019-02-24T21:06:22.532Z,8.10
2019-02-24T21:08:52.134Z,7.67
2019-02-24T21:11:21.320Z,6.53
2019-02-24T21:13:50.558Z,7.33
2019-02-24T21:16:19.741Z,7.67
2019-02-24T21:18:48.960Z,8.90
2019-02-24T21:21:18.134Z,5.80
2019-02-24T21:23:47.373Z,6.30
2019-02-24T21:26:16.562Z,5.80
2019-02-24T21:28:45.785Z,6.37
2019-02-24T21:31:14.971Z,7.60
2019-02-24T21:33:44.529Z,8.90
2019-02-24T21:36:13.710Z,8.43
2019-02-24T21:38:42.897Z,8.10
2019-02-24T21:41:12.139Z,7.00
2019-02-24T21:43:41.330Z,7.87
2019-02-24T21:46:10.595Z,6.20
2019-02-24T21:48:39.778Z,8.27
2019-02-24T21:51:09.028Z,7.87
2019-02-24T21:53:38.201Z,8.23
2019-02-24T21:56:07.446Z,8.00
2019-02-24T21:58:36.645Z,11.53
2019-02-24T22:01:45.546Z,8.87
2019-02-24T22:04:14.792Z,8.90
2019-02-24T22:06:44.042Z,7.47
2019-02-24T22:09:13.635Z,7.00
2019-02-24T22:11:42.890Z,7.10
2019-02-24T22:14:12.075Z,6.67
2019-02-24T22:16:41.271Z,7.63
2019-02-24T22:19:10.523Z,7.10
2019-02-24T22:21:39.743Z,7.23
2019-02-24T22:24:09.333Z,7.80
2019-02-24T22:26:38.917Z,6.93
2019-02-24T22:29:08.498Z,7.00
2019-02-24T22:31:37.683Z,7.17
2019-02-24T22:34:06.908Z,7.10
2019-02-24T22:36:36.090Z,7.37
2019-02-24T22:39:44.732Z,6.80
2019-02-24T22:42:13.918Z,7.90
2019-02-24T22:44:43.169Z,7.57
2019-02-24T22:47:12.715Z,7.37
2019-02-24T22:49:41.964Z,6.80
2019-02-24T22:52:11.148Z,8.87
2019-02-24T22:54:40.394Z,8.23
2019-02-24T22:57:09.863Z,8.77
2019-02-24T22:59:39.479Z,8.80
2019-02-24T23:02:08.946Z,8.17
2019-02-24T23:04:38.246Z,7.43
2019-02-24T23:07:07.448Z,8.67
2019-02-24T23:09:36.681Z,7.67
2019-02-24T23:12:05.867Z,8.60
2019-02-24T23:14:35.257Z,8.70
2019-02-24T23:17:04.551Z,9.97
2019-02-24T23:19:34.178Z,7.13
2019-02-24T23:22:03.761Z,6.70
2019-02-24T23:24:33.017Z,7.17
2019-02-24T23:27:02.199Z,7.27
2019-02-24T23:29:31.452Z,10.73
2019-02-24T23:32:00.639Z,8.40
2019-02-24T23:34:30.286Z,7.47
2019-02-24T23:36:59.476Z,9.80
2019-02-24T23:39:28.742Z,10.23
2019-02-24T23:41:57.966Z,8.23
2019-02-24T23:44:27.143Z,9.43
2019-02-24T23:46:56.989Z,7.57
2019-02-24T23:49:26.200Z,8.03
2019-02-24T23:52:34.832Z,7.67
2019-02-24T23:55:04.423Z,11.10
2019-02-24T23:57:33.680Z,10.63
